sensor_id;sensor_type;location;lat;lon;timestamp;temperature;humidity
3709;DHT22;1870;53.996;10.784;2023-08-31T00:02:09;14.70;99.90
3709;DHT22;1870;53.996;10.784;2023-08-31T00:04:35;14.80;99.90
3709;DHT22;1870;53.996;10.784;2023-08-31T00:07:01;14.70;99.90
3709;DHT22;1870;53.996;10.784;2023-08-31T00:09:27;14.70;99.90
3709;DHT22;1870;53.996;10.784;2023-08-31T00:11:52;14.70;99.90
3709;DHT22;1870;53.996;10.784;2023-08-31T00:14:18;14.70;99.90
3709;DHT22;1870;53.996;10.784;2023-08-31T00:16:44;14.80;99.90
3709;DHT22;1870;53.996;10.784;2023-08-31T00:19:12;14.80;99.90
3709;DHT22;1870;53.996;10.784;2023-08-31T00:21:39;14.70;99.90
3709;DHT22;1870;53.996;10.784;2023-08-31T00:24:04;14.80;99.90
3709;DHT22;1870;53.996;10.784;2023-08-31T00:26:30;14.90;99.90
3709;DHT22;1870;53.996;10.784;2023-08-31T00:28:56;15.00;99.90
3709;DHT22;1870;53.996;10.784;2023-08-31T00:31:23;15.10;99.90
3709;DHT22;1870;53.996;10.784;2023-08-31T00:33:49;15.00;99.90
3709;DHT22;1870;53.996;10.784;2023-08-31T00:36:15;15.00;99.90
3709;DHT22;1870;53.996;10.784;2023-08-31T00:38:42;14.90;99.90
3709;DHT22;1870;53.996;10.784;2023-08-31T00:41:08;14.90;99.90
3709;DHT22;1870;53.996;10.784;2023-08-31T00:43:34;14.90;99.90
3709;DHT22;1870;53.996;10.784;2023-08-31T00:46:00;14.80;99.90
3709;DHT22;1870;53.996;10.784;2023-08-31T00:48:26;15.00;99.90
3709;DHT22;1870;53.996;10.784;2023-08-31T00:50:52;15.10;99.90
3709;DHT22;1870;53.996;10.784;2023-08-31T00:53:18;15.10;99.90
3709;DHT22;1870;53.996;10.784;2023-08-31T00:55:46;15.20;99.90
3709;DHT22;1870;53.996;10.784;2023-08-31T00:58:13;15.30;99.90
3709;DHT22;1870;53.996;10.784;2023-08-31T01:07:04;14.90;99.90
3709;DHT22;1870;53.996;10.784;2023-08-31T01:12:10;15.10;99.90
3709;DHT22;1870;53.996;10.784;2023-08-31T01:14:47;15.00;99.90
3709;DHT22;1870;53.996;10.784;2023-08-31T01:17:15;15.00;99.90
3709;DHT22;1870;53.996;10.784;2023-08-31T01:19:54;14.90;99.90
3709;DHT22;1870;53.996;10.784;2023-08-31T01:23:09;15.00;99.90
3709;DHT22;1870;53.996;10.784;2023-08-31T01:25:29;15.00;99.90
3709;DHT22;1870;53.996;10.784;2023-08-31T01:27:57;15.00;99.90
3709;DHT22;1870;53.996;10.784;2023-08-31T01:30:24;15.00;99.90
3709;DHT22;1870;53.996;10.784;2023-08-31T01:32:49;14.90;99.90
3709;DHT22;1870;53.996;10.784;2023-08-31T01:35:17;14.80;99.90
3709;DHT22;1870;53.996;10.784;2023-08-31T01:38:03;14.90;99.90
3709;DHT22;1870;53.996;10.784;2023-08-31T01:40:40;14.90;99.90
3709;DHT22;1870;53.996;10.784;2023-08-31T01:43:10;14.90;99.90
3709;DHT22;1870;53.996;10.784;2023-08-31T01:45:37;15.00;99.90
3709;DHT22;1870;53.996;10.784;2023-08-31T01:48:04;14.90;99.90
3709;DHT22;1870;53.996;10.784;2023-08-31T01:50:30;14.90;99.90
3709;DHT22;1870;53.996;10.784;2023-08-31T01:52:56;14.70;99.90
3709;DHT22;1870;53.996;10.784;2023-08-31T01:55:22;14.80;99.90
3709;DHT22;1870;53.996;10.784;2023-08-31T01:57:48;14.80;99.90
3709;DHT22;1870;53.996;10.784;2023-08-31T02:00:14;14.80;99.90
3709;DHT22;1870;53.996;10.784;2023-08-31T02:02:41;15.10;99.90
3709;DHT22;1870;53.996;10.784;2023-08-31T02:05:08;14.90;99.90
3709;DHT22;1870;53.996;10.784;2023-08-31T02:07:34;14.90;99.90
3709;DHT22;1870;53.996;10.784;2023-08-31T02:09:59;15.00;99.90
3709;DHT22;1870;53.996;10.784;2023-08-31T02:12:25;14.90;99.90
3709;DHT22;1870;53.996;10.784;2023-08-31T02:14:51;14.90;99.90
3709;DHT22;1870;53.996;10.784;2023-08-31T02:17:16;14.90;99.90
3709;DHT22;1870;53.996;10.784;2023-08-31T02:19:43;14.80;99.90
3709;DHT22;1870;53.996;10.784;2023-08-31T02:22:09;14.80;99.90
3709;DHT22;1870;53.996;10.784;2023-08-31T02:24:35;14.80;99.90
3709;DHT22;1870;53.996;10.784;2023-08-31T02:27:00;14.90;99.90
3709;DHT22;1870;53.996;10.784;2023-08-31T02:29:26;14.80;99.90
3709;DHT22;1870;53.996;10.784;2023-08-31T02:31:52;14.60;99.90
3709;DHT22;1870;53.996;10.784;2023-08-31T02:34:17;14.90;99.90
3709;DHT22;1870;53.996;10.784;2023-08-31T02:36:43;14.90;99.90
3709;DHT22;1870;53.996;10.784;2023-08-31T02:39:09;14.70;99.90
3709;DHT22;1870;53.996;10.784;2023-08-31T02:41:34;14.60;99.90
3709;DHT22;1870;53.996;10.784;2023-08-31T02:44:00;14.60;99.90
3709;DHT22;1870;53.996;10.784;2023-08-31T02:46:26;14.30;99.90
3709;DHT22;1870;53.996;10.784;2023-08-31T02:48:51;14.30;99.90
3709;DHT22;1870;53.996;10.784;2023-08-31T02:51:17;14.20;99.90
3709;DHT22;1870;53.996;10.784;2023-08-31T02:53:43;14.20;99.90
3709;DHT22;1870;53.996;10.784;2023-08-31T02:56:08;14.30;99.90
3709;DHT22;1870;53.996;10.784;2023-08-31T02:58:34;14.30;99.90
3709;DHT22;1870;53.996;10.784;2023-08-31T03:01:07;14.20;99.90
3709;DHT22;1870;53.996;10.784;2023-08-31T03:03:33;14.00;99.90
3709;DHT22;1870;53.996;10.784;2023-08-31T03:06:00;14.00;99.90
3709;DHT22;1870;53.996;10.784;2023-08-31T03:08:26;14.30;99.90
3709;DHT22;1870;53.996;10.784;2023-08-31T03:10:51;14.20;99.90
3709;DHT22;1870;53.996;10.784;2023-08-31T03:13:19;14.30;99.90
3709;DHT22;1870;53.996;10.784;2023-08-31T03:15:45;14.30;99.90
3709;DHT22;1870;53.996;10.784;2023-08-31T03:18:11;14.20;99.90
3709;DHT22;1870;53.996;10.784;2023-08-31T03:20:36;14.20;99.90
3709;DHT22;1870;53.996;10.784;2023-08-31T03:23:02;14.10;99.90
3709;DHT22;1870;53.996;10.784;2023-08-31T03:25:28;14.10;99.90
3709;DHT22;1870;53.996;10.784;2023-08-31T03:27:55;13.90;99.90
3709;DHT22;1870;53.996;10.784;2023-08-31T03:30:21;14.00;99.90
3709;DHT22;1870;53.996;10.784;2023-08-31T03:32:46;14.00;99.90
3709;DHT22;1870;53.996;10.784;2023-08-31T03:35:12;14.00;99.90
3709;DHT22;1870;53.996;10.784;2023-08-31T03:37:38;14.10;99.90
3709;DHT22;1870;53.996;10.784;2023-08-31T03:40:04;14.20;99.90
3709;DHT22;1870;53.996;10.784;2023-08-31T03:42:32;14.00;99.90
3709;DHT22;1870;53.996;10.784;2023-08-31T03:44:57;14.20;99.90
3709;DHT22;1870;53.996;10.784;2023-08-31T03:47:23;14.10;99.90
3709;DHT22;1870;53.996;10.784;2023-08-31T03:49:49;14.20;99.90
3709;DHT22;1870;53.996;10.784;2023-08-31T03:52:14;14.20;99.90
3709;DHT22;1870;53.996;10.784;2023-08-31T03:54:40;14.10;99.90
3709;DHT22;1870;53.996;10.784;2023-08-31T03:57:05;14.20;99.90
3709;DHT22;1870;53.996;10.784;2023-08-31T03:59:31;14.30;99.90
3709;DHT22;1870;53.996;10.784;2023-08-31T04:01:57;14.30;99.90
3709;DHT22;1870;53.996;10.784;2023-08-31T04:04:22;14.20;99.90
3709;DHT22;1870;53.996;10.784;2023-08-31T04:06:48;14.10;99.90
3709;DHT22;1870;53.996;10.784;2023-08-31T04:09:14;14.10;99.90
3709;DHT22;1870;53.996;10.784;2023-08-31T04:11:39;14.00;99.90
3709;DHT22;1870;53.996;10.784;2023-08-31T04:14:05;13.80;99.90
3709;DHT22;1870;53.996;10.784;2023-08-31T04:16:32;13.90;99.90
3709;DHT22;1870;53.996;10.784;2023-08-31T04:18:57;13.90;99.90
3709;DHT22;1870;53.996;10.784;2023-08-31T04:21:23;13.80;99.90
3709;DHT22;1870;53.996;10.784;2023-08-31T04:23:49;13.80;99.90
3709;DHT22;1870;53.996;10.784;2023-08-31T04:26:15;13.90;99.90
3709;DHT22;1870;53.996;10.784;2023-08-31T04:28:43;13.70;99.90
3709;DHT22;1870;53.996;10.784;2023-08-31T04:31:09;13.50;99.90
3709;DHT22;1870;53.996;10.784;2023-08-31T04:33:36;13.60;99.90
3709;DHT22;1870;53.996;10.784;2023-08-31T04:36:03;13.50;99.90
3709;DHT22;1870;53.996;10.784;2023-08-31T04:38:33;13.60;99.90
3709;DHT22;1870;53.996;10.784;2023-08-31T04:41:00;13.50;99.90
3709;DHT22;1870;53.996;10.784;2023-08-31T04:43:26;13.40;99.90
3709;DHT22;1870;53.996;10.784;2023-08-31T04:45:52;13.40;99.90
3709;DHT22;1870;53.996;10.784;2023-08-31T04:48:18;13.40;99.90
3709;DHT22;1870;53.996;10.784;2023-08-31T04:50:43;13.50;99.90
3709;DHT22;1870;53.996;10.784;2023-08-31T04:53:09;13.40;99.90
3709;DHT22;1870;53.996;10.784;2023-08-31T04:55:35;13.40;99.90
3709;DHT22;1870;53.996;10.784;2023-08-31T04:58:00;13.50;99.90
3709;DHT22;1870;53.996;10.784;2023-08-31T05:00:28;13.40;99.90
3709;DHT22;1870;53.996;10.784;2023-08-31T05:02:53;13.50;99.90
3709;DHT22;1870;53.996;10.784;2023-08-31T05:05:19;13.50;99.90
3709;DHT22;1870;53.996;10.784;2023-08-31T05:07:45;13.30;99.90
3709;DHT22;1870;53.996;10.784;2023-08-31T05:10:11;13.40;99.90
3709;DHT22;1870;53.996;10.784;2023-08-31T05:12:36;13.30;99.90
3709;DHT22;1870;53.996;10.784;2023-08-31T05:15:02;13.10;99.90
3709;DHT22;1870;53.996;10.784;2023-08-31T05:17:28;13.10;99.90
3709;DHT22;1870;53.996;10.784;2023-08-31T05:19:55;13.10;99.90
3709;DHT22;1870;53.996;10.784;2023-08-31T05:22:22;13.10;99.90
3709;DHT22;1870;53.996;10.784;2023-08-31T05:24:48;13.10;99.90
3709;DHT22;1870;53.996;10.784;2023-08-31T05:27:14;13.20;99.90
3709;DHT22;1870;53.996;10.784;2023-08-31T05:29:40;13.30;99.90
3709;DHT22;1870;53.996;10.784;2023-08-31T05:32:05;13.10;99.90
3709;DHT22;1870;53.996;10.784;2023-08-31T05:34:31;13.20;99.90
3709;DHT22;1870;53.996;10.784;2023-08-31T05:37:00;13.30;99.90
3709;DHT22;1870;53.996;10.784;2023-08-31T05:39:25;13.40;99.90
3709;DHT22;1870;53.996;10.784;2023-08-31T05:41:51;13.30;99.90
3709;DHT22;1870;53.996;10.784;2023-08-31T05:44:17;13.20;99.90
3709;DHT22;1870;53.996;10.784;2023-08-31T05:46:42;13.20;99.90
3709;DHT22;1870;53.996;10.784;2023-08-31T05:49:08;13.20;99.90
3709;DHT22;1870;53.996;10.784;2023-08-31T05:51:34;13.20;99.90
3709;DHT22;1870;53.996;10.784;2023-08-31T05:54:00;13.50;99.90
3709;DHT22;1870;53.996;10.784;2023-08-31T05:56:26;13.50;99.90
3709;DHT22;1870;53.996;10.784;2023-08-31T05:58:53;13.50;99.90
3709;DHT22;1870;53.996;10.784;2023-08-31T06:01:22;13.40;99.90
3709;DHT22;1870;53.996;10.784;2023-08-31T06:03:48;13.30;99.90
3709;DHT22;1870;53.996;10.784;2023-08-31T06:06:15;13.30;99.90
3709;DHT22;1870;53.996;10.784;2023-08-31T06:08:41;13.30;99.90
3709;DHT22;1870;53.996;10.784;2023-08-31T06:11:08;13.30;99.90
3709;DHT22;1870;53.996;10.784;2023-08-31T06:13:34;13.30;99.90
3709;DHT22;1870;53.996;10.784;2023-08-31T06:16:00;13.20;99.90
3709;DHT22;1870;53.996;10.784;2023-08-31T06:18:25;13.20;99.90
3709;DHT22;1870;53.996;10.784;2023-08-31T06:20:51;13.10;99.90
3709;DHT22;1870;53.996;10.784;2023-08-31T06:23:17;13.00;99.90
3709;DHT22;1870;53.996;10.784;2023-08-31T06:25:43;13.00;99.90
3709;DHT22;1870;53.996;10.784;2023-08-31T06:28:11;12.90;99.90
3709;DHT22;1870;53.996;10.784;2023-08-31T06:30:37;12.90;99.90
3709;DHT22;1870;53.996;10.784;2023-08-31T06:33:04;12.90;99.90
3709;DHT22;1870;53.996;10.784;2023-08-31T06:35:30;13.00;99.90
3709;DHT22;1870;53.996;10.784;2023-08-31T06:37:56;12.90;99.90
3709;DHT22;1870;53.996;10.784;2023-08-31T06:40:23;12.90;99.90
3709;DHT22;1870;53.996;10.784;2023-08-31T06:42:49;13.00;99.90
3709;DHT22;1870;53.996;10.784;2023-08-31T06:45:15;13.00;99.90
3709;DHT22;1870;53.996;10.784;2023-08-31T06:47:41;13.00;99.90
3709;DHT22;1870;53.996;10.784;2023-08-31T06:50:06;13.10;99.90
3709;DHT22;1870;53.996;10.784;2023-08-31T06:52:35;13.20;99.90
3709;DHT22;1870;53.996;10.784;2023-08-31T06:55:02;13.20;99.90
3709;DHT22;1870;53.996;10.784;2023-08-31T06:57:28;13.20;99.90
3709;DHT22;1870;53.996;10.784;2023-08-31T06:59:54;13.20;99.90
3709;DHT22;1870;53.996;10.784;2023-08-31T07:02:20;13.30;99.90
3709;DHT22;1870;53.996;10.784;2023-08-31T07:04:47;13.40;99.90
3709;DHT22;1870;53.996;10.784;2023-08-31T07:07:14;13.50;99.90
3709;DHT22;1870;53.996;10.784;2023-08-31T07:09:43;13.40;99.90
3709;DHT22;1870;53.996;10.784;2023-08-31T07:12:11;13.30;99.90
3709;DHT22;1870;53.996;10.784;2023-08-31T07:14:38;13.40;99.90
3709;DHT22;1870;53.996;10.784;2023-08-31T07:17:04;13.40;99.90
3709;DHT22;1870;53.996;10.784;2023-08-31T07:19:30;13.50;99.90
3709;DHT22;1870;53.996;10.784;2023-08-31T07:21:57;13.50;99.90
3709;DHT22;1870;53.996;10.784;2023-08-31T07:24:23;13.60;99.90
3709;DHT22;1870;53.996;10.784;2023-08-31T07:26:50;13.60;99.90
3709;DHT22;1870;53.996;10.784;2023-08-31T07:29:16;13.60;99.90
3709;DHT22;1870;53.996;10.784;2023-08-31T07:31:43;13.60;99.90
3709;DHT22;1870;53.996;10.784;2023-08-31T07:34:08;13.60;99.90
3709;DHT22;1870;53.996;10.784;2023-08-31T07:36:34;13.70;99.90
3709;DHT22;1870;53.996;10.784;2023-08-31T07:39:00;13.70;99.90
3709;DHT22;1870;53.996;10.784;2023-08-31T07:41:25;13.80;99.90
3709;DHT22;1870;53.996;10.784;2023-08-31T07:43:52;13.70;99.90
3709;DHT22;1870;53.996;10.784;2023-08-31T07:46:18;13.80;99.90
3709;DHT22;1870;53.996;10.784;2023-08-31T07:48:44;13.80;99.90
3709;DHT22;1870;53.996;10.784;2023-08-31T07:51:09;13.80;99.90
3709;DHT22;1870;53.996;10.784;2023-08-31T07:53:35;13.90;99.90
3709;DHT22;1870;53.996;10.784;2023-08-31T07:56:01;13.90;99.90
3709;DHT22;1870;53.996;10.784;2023-08-31T07:58:28;14.00;99.90
3709;DHT22;1870;53.996;10.784;2023-08-31T08:00:57;14.00;99.90
3709;DHT22;1870;53.996;10.784;2023-08-31T08:03:23;14.10;99.90
3709;DHT22;1870;53.996;10.784;2023-08-31T08:05:49;14.00;99.90
3709;DHT22;1870;53.996;10.784;2023-08-31T08:08:15;14.10;99.90
3709;DHT22;1870;53.996;10.784;2023-08-31T08:10:40;14.20;99.90
3709;DHT22;1870;53.996;10.784;2023-08-31T08:13:08;14.30;99.90
3709;DHT22;1870;53.996;10.784;2023-08-31T08:15:34;14.40;99.90
3709;DHT22;1870;53.996;10.784;2023-08-31T08:18:00;14.50;99.90
3709;DHT22;1870;53.996;10.784;2023-08-31T08:20:27;14.60;99.90
3709;DHT22;1870;53.996;10.784;2023-08-31T08:22:54;14.70;99.90
3709;DHT22;1870;53.996;10.784;2023-08-31T08:25:20;14.70;99.90
3709;DHT22;1870;53.996;10.784;2023-08-31T08:27:46;14.70;99.90
3709;DHT22;1870;53.996;10.784;2023-08-31T08:30:14;14.80;99.90
3709;DHT22;1870;53.996;10.784;2023-08-31T08:32:41;14.90;99.90
3709;DHT22;1870;53.996;10.784;2023-08-31T08:35:07;14.90;99.90
3709;DHT22;1870;53.996;10.784;2023-08-31T08:37:34;14.90;99.90
3709;DHT22;1870;53.996;10.784;2023-08-31T08:40:00;14.90;99.90
3709;DHT22;1870;53.996;10.784;2023-08-31T08:42:29;15.00;99.90
3709;DHT22;1870;53.996;10.784;2023-08-31T08:44:57;15.00;99.90
3709;DHT22;1870;53.996;10.784;2023-08-31T08:47:24;15.10;99.90
3709;DHT22;1870;53.996;10.784;2023-08-31T08:49:50;15.20;99.90
3709;DHT22;1870;53.996;10.784;2023-08-31T08:52:17;15.20;99.90
3709;DHT22;1870;53.996;10.784;2023-08-31T08:54:44;15.30;99.90
3709;DHT22;1870;53.996;10.784;2023-08-31T08:57:10;15.40;99.90
3709;DHT22;1870;53.996;10.784;2023-08-31T08:59:36;15.40;99.90
3709;DHT22;1870;53.996;10.784;2023-08-31T09:02:02;15.50;99.90
3709;DHT22;1870;53.996;10.784;2023-08-31T09:04:30;15.50;99.90
3709;DHT22;1870;53.996;10.784;2023-08-31T09:06:56;15.50;99.90
3709;DHT22;1870;53.996;10.784;2023-08-31T09:09:22;15.60;99.90
3709;DHT22;1870;53.996;10.784;2023-08-31T09:11:48;15.60;99.90
3709;DHT22;1870;53.996;10.784;2023-08-31T09:14:17;15.60;99.90
3709;DHT22;1870;53.996;10.784;2023-08-31T09:16:47;15.60;99.90
3709;DHT22;1870;53.996;10.784;2023-08-31T09:19:23;15.60;99.90
3709;DHT22;1870;53.996;10.784;2023-08-31T09:21:51;15.50;99.90
3709;DHT22;1870;53.996;10.784;2023-08-31T09:24:17;15.60;99.90
3709;DHT22;1870;53.996;10.784;2023-08-31T09:27:03;15.70;99.90
3709;DHT22;1870;53.996;10.784;2023-08-31T09:29:37;15.80;99.90
3709;DHT22;1870;53.996;10.784;2023-08-31T09:32:03;15.90;99.90
3709;DHT22;1870;53.996;10.784;2023-08-31T09:34:33;15.90;99.90
3709;DHT22;1870;53.996;10.784;2023-08-31T09:37:05;15.90;99.90
3709;DHT22;1870;53.996;10.784;2023-08-31T09:39:36;15.90;99.90
3709;DHT22;1870;53.996;10.784;2023-08-31T09:42:02;16.00;99.90
3709;DHT22;1870;53.996;10.784;2023-08-31T09:44:28;16.10;99.90
3709;DHT22;1870;53.996;10.784;2023-08-31T09:46:54;16.20;99.90
3709;DHT22;1870;53.996;10.784;2023-08-31T09:49:21;16.30;99.90
3709;DHT22;1870;53.996;10.784;2023-08-31T09:51:49;16.30;99.90
3709;DHT22;1870;53.996;10.784;2023-08-31T09:54:17;16.20;99.90
3709;DHT22;1870;53.996;10.784;2023-08-31T09:56:45;16.20;99.90
3709;DHT22;1870;53.996;10.784;2023-08-31T09:59:13;16.20;99.90
3709;DHT22;1870;53.996;10.784;2023-08-31T10:01:40;16.40;99.90
3709;DHT22;1870;53.996;10.784;2023-08-31T10:04:07;16.30;99.90
3709;DHT22;1870;53.996;10.784;2023-08-31T10:06:35;16.40;99.90
3709;DHT22;1870;53.996;10.784;2023-08-31T10:09:06;16.40;99.90
3709;DHT22;1870;53.996;10.784;2023-08-31T10:11:33;16.50;99.90
3709;DHT22;1870;53.996;10.784;2023-08-31T10:14:00;16.60;99.90
3709;DHT22;1870;53.996;10.784;2023-08-31T10:16:28;16.70;99.90
3709;DHT22;1870;53.996;10.784;2023-08-31T10:18:57;16.70;99.90
3709;DHT22;1870;53.996;10.784;2023-08-31T10:21:23;16.90;99.90
3709;DHT22;1870;53.996;10.784;2023-08-31T10:23:52;17.10;99.90
3709;DHT22;1870;53.996;10.784;2023-08-31T10:26:31;17.40;99.90
3709;DHT22;1870;53.996;10.784;2023-08-31T10:28:58;17.50;99.90
3709;DHT22;1870;53.996;10.784;2023-08-31T10:31:36;17.50;99.90
3709;DHT22;1870;53.996;10.784;2023-08-31T10:34:05;17.60;99.90
3709;DHT22;1870;53.996;10.784;2023-08-31T10:39:14;17.40;99.90
3709;DHT22;1870;53.996;10.784;2023-08-31T10:41:42;17.40;99.90
3709;DHT22;1870;53.996;10.784;2023-08-31T10:44:21;17.40;99.90
3709;DHT22;1870;53.996;10.784;2023-08-31T10:46:48;17.50;99.90
3709;DHT22;1870;53.996;10.784;2023-08-31T10:49:16;17.50;99.90
3709;DHT22;1870;53.996;10.784;2023-08-31T10:51:45;17.80;99.90
3709;DHT22;1870;53.996;10.784;2023-08-31T10:54:13;17.90;99.90
3709;DHT22;1870;53.996;10.784;2023-08-31T10:59:52;17.90;99.90
3709;DHT22;1870;53.996;10.784;2023-08-31T11:05:14;17.90;99.90
3709;DHT22;1870;53.996;10.784;2023-08-31T11:07:44;17.80;99.90
3709;DHT22;1870;53.996;10.784;2023-08-31T11:10:16;18.00;99.90
3709;DHT22;1870;53.996;10.784;2023-08-31T11:12:50;17.80;99.90
3709;DHT22;1870;53.996;10.784;2023-08-31T11:15:18;17.60;99.90
3709;DHT22;1870;53.996;10.784;2023-08-31T11:17:44;17.50;99.90
3709;DHT22;1870;53.996;10.784;2023-08-31T11:20:14;17.50;99.90
3709;DHT22;1870;53.996;10.784;2023-08-31T11:22:41;17.50;99.90
3709;DHT22;1870;53.996;10.784;2023-08-31T11:25:09;17.50;99.90
3709;DHT22;1870;53.996;10.784;2023-08-31T11:27:35;17.50;99.90
3709;DHT22;1870;53.996;10.784;2023-08-31T11:30:13;17.50;99.90
3709;DHT22;1870;53.996;10.784;2023-08-31T11:32:45;17.60;99.90
3709;DHT22;1870;53.996;10.784;2023-08-31T11:35:10;17.80;99.90
3709;DHT22;1870;53.996;10.784;2023-08-31T11:37:39;18.00;99.90
3709;DHT22;1870;53.996;10.784;2023-08-31T11:40:05;18.10;99.90
3709;DHT22;1870;53.996;10.784;2023-08-31T11:42:31;18.20;99.90
3709;DHT22;1870;53.996;10.784;2023-08-31T11:44:57;18.20;99.90
3709;DHT22;1870;53.996;10.784;2023-08-31T11:47:23;18.10;99.90
3709;DHT22;1870;53.996;10.784;2023-08-31T11:49:50;18.20;99.90
3709;DHT22;1870;53.996;10.784;2023-08-31T11:52:17;18.30;99.90
3709;DHT22;1870;53.996;10.784;2023-08-31T11:54:44;18.50;99.90
3709;DHT22;1870;53.996;10.784;2023-08-31T11:57:11;18.50;99.90
3709;DHT22;1870;53.996;10.784;2023-08-31T11:59:38;18.60;99.90
3709;DHT22;1870;53.996;10.784;2023-08-31T12:02:08;18.60;99.90
3709;DHT22;1870;53.996;10.784;2023-08-31T12:04:42;18.70;99.90
3709;DHT22;1870;53.996;10.784;2023-08-31T12:07:09;18.60;99.90
3709;DHT22;1870;53.996;10.784;2023-08-31T12:09:34;18.60;99.90
3709;DHT22;1870;53.996;10.784;2023-08-31T12:12:01;18.60;99.90
3709;DHT22;1870;53.996;10.784;2023-08-31T12:14:27;18.70;99.90
3709;DHT22;1870;53.996;10.784;2023-08-31T12:17:01;18.80;99.90
3709;DHT22;1870;53.996;10.784;2023-08-31T12:19:32;18.90;99.90
3709;DHT22;1870;53.996;10.784;2023-08-31T12:21:58;19.00;99.90
3709;DHT22;1870;53.996;10.784;2023-08-31T12:24:24;19.00;99.90
3709;DHT22;1870;53.996;10.784;2023-08-31T12:26:51;19.20;99.90
3709;DHT22;1870;53.996;10.784;2023-08-31T12:29:21;19.30;99.90
3709;DHT22;1870;53.996;10.784;2023-08-31T12:31:47;19.20;99.90
3709;DHT22;1870;53.996;10.784;2023-08-31T12:34:13;18.90;99.90
3709;DHT22;1870;53.996;10.784;2023-08-31T12:36:39;18.80;99.90
3709;DHT22;1870;53.996;10.784;2023-08-31T12:39:09;18.80;99.90
3709;DHT22;1870;53.996;10.784;2023-08-31T12:41:42;18.70;99.90
3709;DHT22;1870;53.996;10.784;2023-08-31T12:44:08;18.80;99.90
3709;DHT22;1870;53.996;10.784;2023-08-31T12:46:34;19.00;99.90
3709;DHT22;1870;53.996;10.784;2023-08-31T12:49:00;18.90;99.90
3709;DHT22;1870;53.996;10.784;2023-08-31T12:51:28;19.00;99.90
3709;DHT22;1870;53.996;10.784;2023-08-31T12:53:53;18.80;99.90
3709;DHT22;1870;53.996;10.784;2023-08-31T12:56:19;18.80;99.90
3709;DHT22;1870;53.996;10.784;2023-08-31T12:58:52;18.70;99.90
3709;DHT22;1870;53.996;10.784;2023-08-31T13:01:18;18.70;99.90
3709;DHT22;1870;53.996;10.784;2023-08-31T13:03:45;18.90;99.90
3709;DHT22;1870;53.996;10.784;2023-08-31T13:06:14;19.10;99.90
3709;DHT22;1870;53.996;10.784;2023-08-31T13:08:40;19.20;99.90
3709;DHT22;1870;53.996;10.784;2023-08-31T13:11:08;19.40;99.90
3709;DHT22;1870;53.996;10.784;2023-08-31T13:13:33;19.60;99.90
3709;DHT22;1870;53.996;10.784;2023-08-31T13:15:59;19.70;99.90
3709;DHT22;1870;53.996;10.784;2023-08-31T13:18:26;19.80;99.90
3709;DHT22;1870;53.996;10.784;2023-08-31T13:20:52;19.90;99.90
3709;DHT22;1870;53.996;10.784;2023-08-31T13:23:19;20.00;99.90
3709;DHT22;1870;53.996;10.784;2023-08-31T13:25:45;20.20;99.90
3709;DHT22;1870;53.996;10.784;2023-08-31T13:28:11;20.30;99.90
3709;DHT22;1870;53.996;10.784;2023-08-31T13:30:36;20.40;99.90
3709;DHT22;1870;53.996;10.784;2023-08-31T13:33:02;20.20;99.90
3709;DHT22;1870;53.996;10.784;2023-08-31T13:35:30;20.00;99.90
3709;DHT22;1870;53.996;10.784;2023-08-31T13:37:55;20.00;99.90
3709;DHT22;1870;53.996;10.784;2023-08-31T13:40:21;20.00;99.90
3709;DHT22;1870;53.996;10.784;2023-08-31T13:42:58;19.90;99.90
3709;DHT22;1870;53.996;10.784;2023-08-31T13:45:29;19.90;99.90
3709;DHT22;1870;53.996;10.784;2023-08-31T13:47:56;20.10;99.90
3709;DHT22;1870;53.996;10.784;2023-08-31T13:50:24;20.10;99.90
3709;DHT22;1870;53.996;10.784;2023-08-31T13:52:50;19.90;99.90
3709;DHT22;1870;53.996;10.784;2023-08-31T13:55:16;19.60;99.90
3709;DHT22;1870;53.996;10.784;2023-08-31T13:57:42;19.50;99.90
3709;DHT22;1870;53.996;10.784;2023-08-31T14:00:09;19.30;99.90
3709;DHT22;1870;53.996;10.784;2023-08-31T14:02:35;18.90;99.90
3709;DHT22;1870;53.996;10.784;2023-08-31T14:05:02;18.40;99.90
3709;DHT22;1870;53.996;10.784;2023-08-31T14:07:29;17.90;99.90
3709;DHT22;1870;53.996;10.784;2023-08-31T14:09:54;17.90;99.90
3709;DHT22;1870;53.996;10.784;2023-08-31T14:12:20;17.70;99.90
3709;DHT22;1870;53.996;10.784;2023-08-31T14:14:47;17.80;99.90
3709;DHT22;1870;53.996;10.784;2023-08-31T14:17:13;17.80;99.90
3709;DHT22;1870;53.996;10.784;2023-08-31T14:19:39;17.70;99.90
3709;DHT22;1870;53.996;10.784;2023-08-31T14:22:05;17.70;99.90
3709;DHT22;1870;53.996;10.784;2023-08-31T14:24:31;17.50;99.90
3709;DHT22;1870;53.996;10.784;2023-08-31T14:26:57;17.30;99.90
3709;DHT22;1870;53.996;10.784;2023-08-31T14:29:23;17.20;99.90
3709;DHT22;1870;53.996;10.784;2023-08-31T14:31:49;17.30;99.90
3709;DHT22;1870;53.996;10.784;2023-08-31T14:34:14;17.40;99.90
3709;DHT22;1870;53.996;10.784;2023-08-31T14:36:41;17.50;99.90
3709;DHT22;1870;53.996;10.784;2023-08-31T14:39:07;17.70;99.90
3709;DHT22;1870;53.996;10.784;2023-08-31T14:41:33;17.90;99.90
3709;DHT22;1870;53.996;10.784;2023-08-31T14:43:58;18.20;99.90
3709;DHT22;1870;53.996;10.784;2023-08-31T14:46:24;18.40;99.90
3709;DHT22;1870;53.996;10.784;2023-08-31T14:48:50;18.50;99.90
3709;DHT22;1870;53.996;10.784;2023-08-31T14:51:16;18.80;99.90
3709;DHT22;1870;53.996;10.784;2023-08-31T14:53:42;18.90;99.90
3709;DHT22;1870;53.996;10.784;2023-08-31T14:56:08;19.30;99.90
3709;DHT22;1870;53.996;10.784;2023-08-31T14:58:34;19.60;99.90
3709;DHT22;1870;53.996;10.784;2023-08-31T15:01:00;19.90;99.90
3709;DHT22;1870;53.996;10.784;2023-08-31T15:03:26;20.10;99.90
3709;DHT22;1870;53.996;10.784;2023-08-31T15:05:53;20.20;99.90
3709;DHT22;1870;53.996;10.784;2023-08-31T15:08:22;20.10;99.90
3709;DHT22;1870;53.996;10.784;2023-08-31T15:11:01;19.90;99.90
3709;DHT22;1870;53.996;10.784;2023-08-31T15:13:28;19.90;99.90
3709;DHT22;1870;53.996;10.784;2023-08-31T15:15:55;19.70;99.90
3709;DHT22;1870;53.996;10.784;2023-08-31T15:18:20;19.60;99.90
3709;DHT22;1870;53.996;10.784;2023-08-31T15:20:47;19.50;99.90
3709;DHT22;1870;53.996;10.784;2023-08-31T15:23:13;19.30;99.90
3709;DHT22;1870;53.996;10.784;2023-08-31T15:25:38;19.30;99.90
3709;DHT22;1870;53.996;10.784;2023-08-31T15:28:04;19.30;99.90
3709;DHT22;1870;53.996;10.784;2023-08-31T15:30:30;19.20;99.90
3709;DHT22;1870;53.996;10.784;2023-08-31T15:33:03;19.40;99.90
3709;DHT22;1870;53.996;10.784;2023-08-31T15:35:29;19.50;99.90
3709;DHT22;1870;53.996;10.784;2023-08-31T15:37:55;19.50;99.90
3709;DHT22;1870;53.996;10.784;2023-08-31T15:40:21;19.50;99.90
3709;DHT22;1870;53.996;10.784;2023-08-31T15:42:47;19.60;99.90
3709;DHT22;1870;53.996;10.784;2023-08-31T15:45:13;19.60;99.90
3709;DHT22;1870;53.996;10.784;2023-08-31T15:47:41;19.60;99.90
3709;DHT22;1870;53.996;10.784;2023-08-31T15:50:07;19.70;99.90
3709;DHT22;1870;53.996;10.784;2023-08-31T15:52:33;19.60;99.90
3709;DHT22;1870;53.996;10.784;2023-08-31T15:55:02;19.60;99.90
3709;DHT22;1870;53.996;10.784;2023-08-31T15:57:32;19.70;99.90
3709;DHT22;1870;53.996;10.784;2023-08-31T15:59:58;19.70;99.90
3709;DHT22;1870;53.996;10.784;2023-08-31T16:02:25;19.60;99.90